Time;durP1;ratioP1;P1;durP2;ratioP2;P2;SDS_P1;SDS_P2;PMS_P1;PMS_P2;Temp;Humidity;BMP_temperature;BMP_pressure;BME280_temperature;BME280_humidity;BME280_pressure;Samples;Min_cycle;Max_cycle;Signal;HPM_P1;HPM_P2
2024/03/11 00:01:03;;;;;;;0.20;0.20;;;;;;;10.68;78.71;101162.44;4902519;29;20470;-88
2024/03/11 00:03:28;;;;;;;0.20;0.20;;;;;;;10.65;78.27;101158.22;4917794;29;20027;-88
2024/03/11 00:05:55;;;;;;;0.20;0.20;;;;;;;10.67;77.79;101164.19;4901701;29;20087;-88
2024/03/11 00:08:21;;;;;;;0.20;0.20;;;;;;;10.69;77.77;101183.06;4917641;29;20031;-88
2024/03/11 00:10:55;;;;;;;0.20;0.20;;;;;;;10.78;77.81;101198.22;4901322;29;20043;-88
2024/03/11 00:13:22;;;;;;;0.20;0.20;;;;;;;10.76;76.98;101199.19;4918401;29;20027;-88
2024/03/11 00:15:50;;;;;;;0.20;0.20;;;;;;;10.77;77.01;101195.69;4933089;29;20122;-88
2024/03/11 00:18:16;;;;;;;0.20;0.20;;;;;;;10.80;76.60;101195.56;4917291;29;20083;-88
2024/03/11 00:20:45;;;;;;;0.20;0.20;;;;;;;10.81;76.26;101186.91;4917520;29;20035;-88
2024/03/11 00:23:10;;;;;;;0.20;0.20;;;;;;;10.94;76.13;101198.44;4917540;29;20039;-89
2024/03/11 00:25:36;;;;;;;0.20;0.20;;;;;;;11.02;76.39;101196.38;4917293;29;20032;-90
2024/03/11 00:28:01;;;;;;;0.20;0.20;;;;;;;11.09;76.72;101182.25;4933103;29;20031;-89
2024/03/11 00:30:27;;;;;;;0.20;0.20;;;;;;;11.07;75.02;101176.31;4917041;29;20027;-90
2024/03/11 00:32:53;;;;;;;0.20;0.20;;;;;;;11.13;74.42;101173.47;4917115;29;20046;-89
2024/03/11 00:35:18;;;;;;;0.20;0.20;;;;;;;10.99;75.24;101168.03;4917199;29;20036;-89
2024/03/11 00:37:45;;;;;;;0.20;0.20;;;;;;;10.96;75.38;101169.91;4917161;29;20505;-90
2024/03/11 00:40:11;;;;;;;0.20;0.20;;;;;;;10.98;74.77;101160.31;4901597;29;20035;-89
2024/03/11 00:42:40;;;;;;;0.20;0.20;;;;;;;10.94;75.35;101166.53;4932726;29;20058;-89
2024/03/11 00:45:12;;;;;;;0.20;0.20;;;;;;;10.87;75.78;101171.13;4917027;29;20578;-89
2024/03/11 00:47:41;;;;;;;0.20;0.20;;;;;;;10.72;76.15;101164.00;4917032;29;20561;-88
2024/03/11 00:50:07;;;;;;;0.20;0.20;;;;;;;10.74;75.93;101162.19;4916104;29;20048;-89
2024/03/11 00:52:36;;;;;;;0.20;0.20;;;;;;;10.76;75.74;101165.56;4900013;29;20031;-87
2024/03/11 00:55:03;;;;;;;0.25;0.25;;;;;;;10.72;75.96;101151.06;4916287;29;20035;-89
2024/03/11 00:57:29;;;;;;;0.20;0.20;;;;;;;10.78;75.76;101149.03;4916568;29;20565;-88
2024/03/11 00:59:56;;;;;;;0.20;0.20;;;;;;;10.83;75.42;101164.41;4900211;29;20502;-88
2024/03/11 01:02:24;;;;;;;0.20;0.20;;;;;;;10.77;75.92;101164.66;4899941;29;20032;-90
2024/03/11 01:04:52;;;;;;;0.20;0.20;;;;;;;10.72;76.02;101156.25;4916192;29;20070;-88
2024/03/11 01:07:19;;;;;;;0.20;0.20;;;;;;;10.69;76.01;101166.69;4916108;29;20032;-88
2024/03/11 01:09:45;;;;;;;0.20;0.20;;;;;;;10.71;75.82;101157.97;4900233;29;20028;-88
2024/03/11 01:12:10;;;;;;;0.20;0.20;;;;;;;10.72;75.58;101171.78;4915719;29;20395;-89
2024/03/11 01:14:36;;;;;;;0.20;0.20;;;;;;;10.75;75.62;101189.75;4915725;29;20032;-89
2024/03/11 01:17:02;;;;;;;0.20;0.20;;;;;;;10.57;74.88;101168.88;4915967;29;20036;-88
2024/03/11 01:19:28;;;;;;;0.30;0.30;;;;;;;10.72;74.69;101188.13;4947465;29;20032;-88
2024/03/11 01:21:53;;;;;;;0.20;0.20;;;;;;;10.70;74.51;101173.56;4915538;29;20040;-88
2024/03/11 01:24:20;;;;;;;0.20;0.20;;;;;;;10.80;74.15;101186.06;4915957;29;20398;-88
2024/03/11 01:26:48;;;;;;;0.20;0.20;;;;;;;10.77;74.71;101181.00;4916030;29;20482;-88
2024/03/11 01:29:16;;;;;;;0.20;0.20;;;;;;;10.79;74.60;101168.00;4931246;29;20048;-88
2024/03/11 01:31:43;;;;;;;0.20;0.20;;;;;;;10.74;74.93;101168.22;4918726;29;20031;-88
2024/03/11 01:34:09;;;;;;;0.20;0.20;;;;;;;10.71;74.82;101157.97;4903217;29;20397;-88
2024/03/11 01:36:36;;;;;;;0.20;0.20;;;;;;;10.74;74.63;101169.97;4934202;29;20513;-88
2024/03/11 01:39:08;;;;;;;0.20;0.20;;;;;;;10.77;74.66;101172.41;4919374;29;20421;-89
2024/03/11 01:41:36;;;;;;;0.20;0.20;;;;;;;10.67;75.33;101153.00;4904451;29;20097;-88
2024/03/11 01:44:03;;;;;;;0.20;0.20;;;;;;;10.72;75.39;101143.31;4919305;29;20114;-89
2024/03/11 01:46:29;;;;;;;0.20;0.20;;;;;;;10.56;75.23;101115.47;4918965;29;20028;-88
2024/03/11 01:48:56;;;;;;;0.20;0.20;;;;;;;10.60;75.30;101132.53;4911691;29;761554;-89
2024/03/11 01:51:22;;;;;;;0.20;0.20;;;;;;;10.60;75.61;101132.53;4919782;29;20101;-88
2024/03/11 01:53:47;;;;;;;0.20;0.20;;;;;;;10.56;75.99;101122.38;4904272;29;20444;-88
2024/03/11 01:56:14;;;;;;;0.20;0.20;;;;;;;10.54;75.99;101127.63;4904118;29;20486;-88
2024/03/11 01:58:40;;;;;;;0.20;0.20;;;;;;;10.56;76.17;101141.34;4904193;29;20040;-88
2024/03/11 02:01:07;;;;;;;0.20;0.20;;;;;;;10.58;75.94;101149.88;4919679;29;20036;-88
2024/03/11 02:03:33;;;;;;;0.20;0.20;;;;;;;10.55;75.82;101152.59;4920078;29;20027;-90
2024/03/11 02:05:58;;;;;;;0.20;0.20;;;;;;;10.52;76.21;101142.38;4935509;29;20034;-89
2024/03/11 02:08:24;;;;;;;0.20;0.20;;;;;;;10.60;76.07;101136.84;4935613;29;20032;-88
2024/03/11 02:10:49;;;;;;;0.20;0.20;;;;;;;10.64;75.67;101141.03;4919807;29;20028;-88
2024/03/11 02:13:15;;;;;;;0.20;0.20;;;;;;;10.59;75.64;101130.84;4919364;29;20051;-88
2024/03/11 02:15:42;;;;;;;0.20;0.20;;;;;;;10.59;75.58;101124.84;4919393;29;20522;-88
2024/03/11 02:18:08;;;;;;;0.20;0.20;;;;;;;10.62;75.69;101119.56;4903951;29;20042;-88
2024/03/11 02:20:36;;;;;;;0.20;0.20;;;;;;;10.49;75.58;101082.97;4919053;29;20027;-88
2024/03/11 02:23:05;;;;;;;0.20;0.20;;;;;;;10.45;76.17;101072.84;4904352;29;20039;-87
2024/03/11 02:25:31;;;;;;;0.20;0.20;;;;;;;10.39;76.64;101078.25;4919403;29;20046;-87
2024/03/11 02:27:58;;;;;;;0.20;0.20;;;;;;;10.44;76.57;101092.69;4919362;29;20491;-88
2024/03/11 02:30:24;;;;;;;0.20;0.20;;;;;;;10.33;77.19;101115.56;4935337;29;20036;-87
2024/03/11 02:32:50;;;;;;;0.20;0.20;;;;;;;10.26;76.75;101122.72;4935172;29;20115;-89
2024/03/11 02:35:15;;;;;;;0.20;0.20;;;;;;;10.23;77.24;101106.50;4903168;29;20028;-88
2024/03/11 02:37:43;;;;;;;0.20;0.20;;;;;;;10.43;76.59;101119.47;4919070;29;20483;-88
2024/03/11 02:40:09;;;;;;;0.20;0.20;;;;;;;10.37;76.41;101132.63;4919492;29;20024;-88
2024/03/11 02:42:36;;;;;;;0.20;0.20;;;;;;;10.33;76.36;101128.50;4918675;29;20048;-88
2024/03/11 02:45:08;;;;;;;0.20;0.20;;;;;;;10.42;76.12;101137.59;4919107;29;20043;-88
2024/03/11 02:47:34;;;;;;;0.25;0.25;;;;;;;10.44;75.97;101141.84;4919942;29;20024;-89
2024/03/11 02:49:59;;;;;;;0.20;0.20;;;;;;;10.43;76.06;101144.50;4902800;29;20079;-89
2024/03/11 02:52:26;;;;;;;0.20;0.20;;;;;;;10.19;75.97;101123.81;4918965;29;20066;-89
2024/03/11 02:54:53;;;;;;;0.20;0.20;;;;;;;10.34;76.14;101112.06;4934209;29;20055;-88
2024/03/11 02:57:19;;;;;;;0.20;0.20;;;;;;;10.39;75.68;101117.88;4918986;29;20028;-87
2024/03/11 02:59:45;;;;;;;0.20;0.20;;;;;;;10.47;75.87;101146.03;4918888;29;20042;-88
2024/03/11 03:02:10;;;;;;;0.20;0.20;;;;;;;10.45;76.55;101148.69;4919113;29;20478;-88
2024/03/11 03:04:39;;;;;;;0.20;0.20;;;;;;;10.40;76.44;101124.72;4934173;29;20450;-88
2024/03/11 03:07:09;;;;;;;0.20;0.20;;;;;;;10.42;76.36;101117.78;4934387;29;20450;-88
2024/03/11 03:09:36;;;;;;;0.20;0.20;;;;;;;10.37;76.73;101114.53;4903298;29;20028;-87
2024/03/11 03:12:02;;;;;;;0.20;0.20;;;;;;;10.31;76.62;101104.41;4918781;29;20063;-88
2024/03/11 03:14:30;;;;;;;0.20;0.20;;;;;;;10.34;77.03;101115.50;4918704;29;20537;-88
2024/03/11 03:16:59;;;;;;;0.20;0.20;;;;;;;10.34;76.81;101110.31;4918708;29;20494;-87
2024/03/11 03:19:25;;;;;;;0.20;0.20;;;;;;;10.32;76.80;101106.09;4933849;29;20024;-88
2024/03/11 03:21:50;;;;;;;0.20;0.20;;;;;;;10.36;76.68;101109.41;4935039;29;20032;-88
2024/03/11 03:24:16;;;;;;;0.20;0.20;;;;;;;10.39;76.68;101120.47;4934237;29;20071;-88
2024/03/11 03:26:42;;;;;;;0.20;0.20;;;;;;;10.42;76.74;101122.09;4918360;29;20478;-88
2024/03/11 03:29:08;;;;;;;0.20;0.20;;;;;;;10.41;76.11;101108.31;4918248;29;20039;-87
2024/03/11 03:31:33;;;;;;;0.20;0.20;;;;;;;10.38;75.86;101089.50;4933541;29;20038;-89
2024/03/11 03:33:59;;;;;;;0.20;0.20;;;;;;;10.40;75.33;101080.75;4918403;29;20035;-88
2024/03/11 03:36:24;;;;;;;0.20;0.20;;;;;;;10.35;75.35;101087.88;4918173;29;20038;-89
2024/03/11 03:38:50;;;;;;;0.20;0.20;;;;;;;10.32;75.74;101093.16;4902307;29;20039;-89
2024/03/11 03:41:16;;;;;;;0.20;0.20;;;;;;;10.39;75.74;101091.19;4935114;29;20039;-87
2024/03/11 03:43:42;;;;;;;0.20;0.20;;;;;;;10.38;75.86;101105.84;4933762;29;20087;-88
2024/03/11 03:46:08;;;;;;;0.20;0.20;;;;;;;10.37;75.73;101096.41;4917825;29;20031;-90
2024/03/11 03:48:34;;;;;;;0.20;0.20;;;;;;;10.38;75.55;101089.50;4933556;29;20083;-88
2024/03/11 03:51:00;;;;;;;0.20;0.20;;;;;;;10.36;75.27;101076.63;4917582;29;20046;-87
2024/03/11 03:53:25;;;;;;;0.20;0.20;;;;;;;10.36;75.33;101081.81;4901289;29;20036;-87
2024/03/11 03:55:51;;;;;;;0.20;0.20;;;;;;;10.28;75.76;101078.69;4900784;29;20122;-88
2024/03/11 03:58:19;;;;;;;0.20;0.20;;;;;;;10.42;76.10;101101.38;4952679;29;20046;-85
2024/03/11 04:00:44;;;;;;;0.20;0.20;;;;;;;10.39;75.53;101104.09;4967860;28;20031;-86
2024/03/11 04:03:10;;;;;;;0.20;0.20;;;;;;;10.49;75.12;101108.00;4936287;29;20069;-85
2024/03/11 04:05:36;;;;;;;0.20;0.20;;;;;;;10.56;74.74;101105.13;4951894;29;20023;-84
2024/03/11 04:08:01;;;;;;;0.20;0.20;;;;;;;10.55;74.53;101103.44;4936132;29;20038;-88
2024/03/11 04:10:28;;;;;;;0.20;0.20;;;;;;;10.45;75.33;101104.72;4936327;29;20031;-88
2024/03/11 04:12:55;;;;;;;0.20;0.20;;;;;;;10.50;75.10;101120.88;4952221;29;20030;-88
2024/03/11 04:15:23;;;;;;;0.20;0.20;;;;;;;10.41;74.76;101115.22;4951970;29;20113;-88
2024/03/11 04:17:49;;;;;;;0.20;0.20;;;;;;;10.41;74.87;101130.75;4952197;29;20128;-88
2024/03/11 04:20:15;;;;;;;0.20;0.20;;;;;;;10.47;74.56;101126.19;4952280;29;20062;-88
2024/03/11 04:22:45;;;;;;;0.20;0.20;;;;;;;10.42;74.21;101103.97;4952037;28;20474;-88
2024/03/11 04:25:26;;;;;;;0.20;0.20;;;;;;;10.32;74.03;101095.75;4936034;29;20178;-89
2024/03/11 04:27:52;;;;;;;0.20;0.20;;;;;;;10.32;74.59;101112.13;4966663;28;20031;-88
2024/03/11 04:30:21;;;;;;;0.20;0.20;;;;;;;10.34;74.77;101106.91;4967838;28;20038;-89
2024/03/11 04:32:54;;;;;;;0.20;0.20;;;;;;;10.34;75.02;101125.84;4951961;29;20027;-88
2024/03/11 04:35:25;;;;;;;0.20;0.20;;;;;;;10.18;74.53;101105.78;4936785;29;20438;-87
2024/03/11 04:38:00;;;;;;;0.20;0.20;;;;;;;10.17;74.75;101110.09;4967816;28;20032;-87
2024/03/11 04:40:26;;;;;;;0.20;0.20;;;;;;;10.17;74.88;101086.00;4952591;28;20038;-87
2024/03/11 04:42:54;;;;;;;0.20;0.20;;;;;;;10.20;75.29;101101.38;4935892;29;20090;-88
2024/03/11 04:45:20;;;;;;;0.20;0.20;;;;;;;10.25;75.40;101078.81;4951473;28;20086;-88
2024/03/11 04:47:45;;;;;;;0.20;0.20;;;;;;;10.25;75.56;101091.75;4967668;28;20106;-88
2024/03/11 04:50:12;;;;;;;0.20;0.20;;;;;;;10.10;75.17;101113.84;4951567;29;20498;-88
2024/03/11 04:52:38;;;;;;;0.20;0.20;;;;;;;10.10;75.93;101093.16;4953252;28;20027;-90
2024/03/11 04:55:06;;;;;;;0.20;0.20;;;;;;;10.12;75.76;101070.66;4935602;29;20089;-88
2024/03/11 04:57:32;;;;;;;0.20;0.20;;;;;;;10.10;75.78;101048.34;4951695;29;20126;-86
2024/03/11 04:59:57;;;;;;;0.20;0.20;;;;;;;10.05;75.37;101046.81;4950991;29;20406;-86
2024/03/11 05:02:23;;;;;;;0.20;0.20;;;;;;;10.04;75.81;101008.94;4951788;29;20039;-87
2024/03/11 05:04:49;;;;;;;0.20;0.20;;;;;;;9.99;75.35;101005.69;4960308;28;20040;-88
2024/03/11 05:07:14;;;;;;;0.20;0.20;;;;;;;9.94;74.72;101068.81;4915334;29;20031;-88
2024/03/11 05:09:40;;;;;;;0.20;0.20;;;;;;;9.85;75.28;101098.44;4931036;29;20042;-87
2024/03/11 05:12:06;;;;;;;0.20;0.20;;;;;;;11.39;73.99;101073.88;4932097;29;20035;-87
2024/03/11 05:14:33;;;;;;;0.30;0.30;;;;;;;12.32;66.09;101056.56;4947736;29;20063;-90
2024/03/11 05:16:58;;;;;;;0.20;0.20;;;;;;;11.68;67.40;101085.53;4939360;28;20038;-89
2024/03/11 05:19:24;;;;;;;0.20;0.20;;;;;;;11.42;68.24;101106.63;4907693;29;20031;-86
2024/03/11 05:21:49;;;;;;;0.20;0.20;;;;;;;11.28;69.08;101101.19;4949134;29;20028;-86
2024/03/11 05:24:15;;;;;;;0.20;0.20;;;;;;;11.10;70.02;101103.66;4931717;29;20023;-88
2024/03/11 05:26:41;;;;;;;0.20;0.20;;;;;;;10.92;71.06;101122.59;4963383;28;20477;-87
2024/03/11 05:29:09;;;;;;;0.20;0.20;;;;;;;10.79;71.45;101098.97;4944698;29;20034;-88
2024/03/11 05:31:35;;;;;;;0.20;0.20;;;;;;;10.60;71.14;101072.19;4961401;28;20035;-88
2024/03/11 05:34:02;;;;;;;0.20;0.20;;;;;;;10.37;72.04;101101.59;4950885;29;20035;-90
2024/03/11 05:36:27;;;;;;;0.20;0.20;;;;;;;10.39;72.34;101130.81;4953263;28;20125;-93
2024/03/11 05:38:53;;;;;;;0.20;0.20;;;;;;;10.36;72.26;101106.81;4944678;29;20111;-94
2024/03/11 05:41:19;;;;;;;0.20;0.20;;;;;;;10.44;72.43;101154.78;4937199;29;20035;-91
2024/03/11 05:43:44;;;;;;;0.20;0.20;;;;;;;10.33;72.34;101133.66;4932893;29;20039;-91
2024/03/11 05:46:10;;;;;;;0.20;0.20;;;;;;;10.19;73.13;101099.72;4933576;29;20028;-92
2024/03/11 05:48:38;;;;;;;0.20;0.20;;;;;;;10.22;73.03;101095.28;4934624;29;20051;-88
2024/03/11 05:51:05;;;;;;;0.20;0.20;;;;;;;10.26;72.88;101067.56;4932788;29;20043;-90
2024/03/11 05:53:33;;;;;;;0.20;0.20;;;;;;;10.38;72.65;101086.91;4922343;29;20052;-91
2024/03/11 05:55:59;;;;;;;0.20;0.20;;;;;;;10.17;73.42;101107.53;4946408;29;20031;-87
2024/03/11 05:58:28;;;;;;;0.20;0.20;;;;;;;10.20;72.93;101109.97;4940838;29;20046;-86
2024/03/11 06:00:54;;;;;;;0.20;0.20;;;;;;;10.24;73.22;101110.75;4924816;29;20443;-86
2024/03/11 06:03:19;;;;;;;0.20;0.20;;;;;;;10.31;73.21;101099.25;4945038;28;20079;-88
2024/03/11 06:05:48;;;;;;;0.20;0.20;;;;;;;10.32;72.59;101086.28;4933254;29;20059;-90
2024/03/11 06:08:16;;;;;;;0.20;0.20;;;;;;;10.14;72.14;101071.47;4916127;29;20035;-88
2024/03/11 06:10:42;;;;;;;0.20;0.20;;;;;;;10.33;72.12;101077.59;4947696;29;20163;-89
2024/03/11 06:13:08;;;;;;;0.20;0.20;;;;;;;10.36;72.46;101102.50;4922916;29;20047;-86
2024/03/11 06:15:35;;;;;;;0.20;0.20;;;;;;;10.40;72.58;101098.03;4945082;28;20070;-89
2024/03/11 06:18:01;;;;;;;0.20;0.20;;;;;;;10.52;72.06;101119.09;4953525;28;20035;-86
2024/03/11 06:20:27;;;;;;;0.20;0.20;;;;;;;10.40;72.33;101119.56;4937165;29;20498;-85
2024/03/11 06:22:52;;;;;;;0.20;0.20;;;;;;;10.53;73.04;101125.94;4950649;29;20031;-90
2024/03/11 06:25:20;;;;;;;0.20;0.20;;;;;;;10.55;72.71;101123.28;4938629;29;20032;-88
2024/03/11 06:27:49;;;;;;;0.20;0.20;;;;;;;10.46;72.48;101108.97;4951816;29;20039;-88
2024/03/11 06:30:16;;;;;;;0.20;0.20;;;;;;;10.62;72.05;101132.50;4936189;29;20035;-93
2024/03/11 06:32:48;;;;;;;0.20;0.20;;;;;;;10.61;71.94;101129.03;4932877;29;20502;-85
2024/03/11 06:35:14;;;;;;;0.20;0.20;;;;;;;10.67;70.97;101132.28;4934302;29;20115;-84
2024/03/11 06:37:43;;;;;;;0.20;0.20;;;;;;;10.69;70.15;101135.66;4915527;28;20075;-85
2024/03/11 06:40:09;;;;;;;0.20;0.20;;;;;;;10.52;69.95;101105.28;4930144;29;20131;-86
2024/03/11 06:42:35;;;;;;;0.20;0.20;;;;;;;10.75;70.29;101136.25;4948869;28;20043;-88
2024/03/11 06:45:01;;;;;;;0.20;0.20;;;;;;;10.62;69.98;101115.22;4929599;29;20043;-89
2024/03/11 06:47:26;;;;;;;0.20;0.20;;;;;;;10.69;69.83;101125.28;4919806;29;20514;-90
2024/03/11 06:49:52;;;;;;;0.20;0.20;;;;;;;10.77;69.71;101144.78;4940542;29;20419;-85
2024/03/11 06:52:18;;;;;;;0.20;0.20;;;;;;;10.76;67.94;101155.19;4927628;29;20051;-93
2024/03/11 06:54:44;;;;;;;0.20;0.20;;;;;;;10.82;68.44;101153.22;4933011;29;20557;-87
2024/03/11 06:57:10;;;;;;;0.20;0.20;;;;;;;10.83;68.31;101164.41;4920522;29;20035;-88
2024/03/11 06:59:35;;;;;;;0.20;0.20;;;;;;;10.89;68.07;101162.38;4917303;29;20040;-94
2024/03/11 07:02:01;;;;;;;0.20;0.20;;;;;;;10.93;67.66;101164.88;4945746;29;20462;-86
2024/03/11 07:04:27;;;;;;;0.20;0.20;;;;;;;10.94;67.60;101145.84;4952519;28;20032;-90
2024/03/11 07:06:52;;;;;;;0.20;0.20;;;;;;;10.93;67.55;101142.41;4917232;29;20189;-87
2024/03/11 07:09:18;;;;;;;0.20;0.20;;;;;;;10.91;67.93;101136.44;4936413;29;20462;-88
2024/03/11 07:11:44;;;;;;;0.20;0.20;;;;;;;11.07;67.52;101145.25;4919977;29;20504;-91
2024/03/11 07:14:13;;;;;;;0.20;0.20;;;;;;;11.07;68.23;101140.06;4950493;29;20031;-91
2024/03/11 07:16:42;;;;;;;0.20;0.20;;;;;;;11.07;67.76;101121.94;4945545;28;20028;-90
2024/03/11 07:19:09;;;;;;;0.20;0.20;;;;;;;11.08;67.23;101117.59;4923322;29;20028;-88
2024/03/11 07:21:38;;;;;;;0.20;0.20;;;;;;;11.02;67.05;101120.47;4958252;28;20458;-90
2024/03/11 07:24:07;;;;;;;0.20;0.20;;;;;;;10.98;66.73;101135.28;4921725;29;20055;-87
2024/03/11 07:26:32;;;;;;;0.20;0.20;;;;;;;11.09;66.87;101130.47;4943858;29;20036;-88
2024/03/11 07:28:58;;;;;;;0.20;0.20;;;;;;;10.94;66.70;101114.78;4918618;29;20143;-88
2024/03/11 07:31:24;;;;;;;0.20;0.20;;;;;;;11.15;66.22;101130.22;4948808;29;20042;-89
2024/03/11 07:33:49;;;;;;;0.20;0.20;;;;;;;11.18;66.28;101127.50;4932861;29;20071;-92
2024/03/11 07:36:16;;;;;;;0.20;0.20;;;;;;;11.13;66.67;101121.69;4917289;28;20055;-88
2024/03/11 07:38:42;;;;;;;0.20;0.20;;;;;;;11.17;66.27;101136.16;4898625;29;20036;-82
2024/03/11 07:41:08;;;;;;;0.20;0.20;;;;;;;11.17;66.06;101120.63;4929510;29;20036;-81
2024/03/11 07:43:34;;;;;;;0.20;0.20;;;;;;;11.14;67.24;101114.75;4931847;29;20039;-89
2024/03/11 07:46:03;;;;;;;0.20;0.20;;;;;;;11.13;66.70;101116.50;4898822;29;20035;-92
2024/03/11 07:48:29;;;;;;;0.20;0.20;;;;;;;11.09;67.12;101122.72;4933863;29;20048;-90
2024/03/11 07:50:55;;;;;;;0.20;0.20;;;;;;;11.05;67.66;101136.69;4940602;29;20086;-88
2024/03/11 07:53:20;;;;;;;0.20;0.20;;;;;;;11.14;68.77;101128.53;4965714;28;20027;-92
2024/03/11 07:55:47;;;;;;;0.20;0.20;;;;;;;11.18;68.44;101130.06;4919218;29;20071;-92
2024/03/11 07:58:14;;;;;;;0.25;0.25;;;;;;;11.19;66.66;101121.41;4906104;29;20027;-91
2024/03/11 08:00:42;;;;;;;0.20;0.20;;;;;;;11.26;66.38;101136.69;4944216;29;20024;-88
2024/03/11 08:03:07;;;;;;;0.20;0.20;;;;;;;11.24;66.18;101148.88;4969939;28;20035;-91
2024/03/11 08:05:36;;;;;;;0.20;0.20;;;;;;;11.23;65.97;101149.78;4930751;29;20542;-90
2024/03/11 08:08:08;;;;;;;0.20;0.20;;;;;;;11.17;64.90;101154.28;4923466;29;20391;-89
2024/03/11 08:10:34;;;;;;;0.20;0.20;;;;;;;11.17;64.97;101163.81;4935894;29;20110;-91
2024/03/11 08:13:00;;;;;;;0.20;0.20;;;;;;;11.18;64.96;101166.34;4919404;29;20036;-93
2024/03/11 08:15:26;;;;;;;0.20;0.20;;;;;;;11.26;64.27;101168.59;4950027;28;20593;-90
2024/03/11 08:17:52;;;;;;;0.20;0.20;;;;;;;11.17;63.12;101166.41;4932247;29;20538;-90
2024/03/11 08:20:18;;;;;;;0.25;0.25;;;;;;;11.17;63.68;101182.78;4936794;29;21162;-91
2024/03/11 08:22:48;;;;;;;0.20;0.20;;;;;;;11.13;63.98;101185.59;4901680;29;20032;-88
2024/03/11 08:25:27;;;;;;;0.20;0.20;;;;;;;11.06;64.65;101177.22;4908009;29;20557;-87
2024/03/11 08:27:55;;;;;;;0.20;0.20;;;;;;;11.21;64.27;101183.50;4932963;29;20497;-91
2024/03/11 08:30:22;;;;;;;0.20;0.20;;;;;;;11.23;63.17;101173.09;4951385;29;20078;-90
2024/03/11 08:32:49;;;;;;;0.20;0.20;;;;;;;11.22;63.50;101174.00;4951233;29;20038;-86
2024/03/11 08:35:16;;;;;;;0.20;0.20;;;;;;;11.28;63.71;101181.47;4968261;28;20041;-86
2024/03/11 08:37:42;;;;;;;0.20;0.20;;;;;;;11.33;63.76;101172.63;4916665;28;20059;-86
2024/03/11 08:40:14;;;;;;;0.30;0.30;;;;;;;11.28;63.37;101171.13;4948167;28;20144;-86
2024/03/11 08:42:44;;;;;;;0.20;0.20;;;;;;;11.20;63.92;101164.50;4934449;29;20495;-91
2024/03/11 08:45:11;;;;;;;0.20;0.20;;;;;;;11.20;64.54;101159.34;4915256;29;20055;-84
2024/03/11 08:47:39;;;;;;;0.20;0.20;;;;;;;11.23;64.41;101167.91;4907289;29;20401;-89
2024/03/11 08:50:08;;;;;;;0.30;0.30;;;;;;;11.19;64.28;101142.13;4917783;29;20054;-85
2024/03/11 08:52:33;;;;;;;0.20;0.20;;;;;;;11.21;64.55;101144.66;4933185;29;20023;-89
2024/03/11 08:55:05;;;;;;;0.20;0.20;;;;;;;11.29;64.50;101141.72;4917577;29;20043;-87
2024/03/11 08:57:32;;;;;;;0.20;0.20;;;;;;;11.28;64.98;101140.88;4931116;29;20059;-87
2024/03/11 08:59:57;;;;;;;0.20;0.20;;;;;;;11.12;64.77;101122.59;4929099;29;20040;-84
2024/03/11 09:02:23;;;;;;;0.20;0.20;;;;;;;11.04;64.88;101114.31;4939111;29;20047;-87
2024/03/11 09:04:49;;;;;;;0.20;0.20;;;;;;;11.01;65.49;101111.88;4925304;29;20028;-86
2024/03/11 09:07:15;;;;;;;0.20;0.20;;;;;;;10.85;65.54;101116.84;4951263;28;20038;-85
2024/03/11 09:09:41;;;;;;;0.20;0.20;;;;;;;10.84;65.75;101132.44;4949298;29;20034;-84
2024/03/11 09:12:09;;;;;;;0.20;0.20;;;;;;;11.01;65.97;101136.88;4935355;29;20044;-93
2024/03/11 09:14:35;;;;;;;0.20;0.20;;;;;;;11.06;66.25;101146.16;4942579;29;20024;-91
2024/03/11 09:17:00;;;;;;;0.20;0.20;;;;;;;11.10;65.42;101134.75;4931458;29;20553;-90
2024/03/11 09:19:27;;;;;;;0.20;0.20;;;;;;;10.98;65.67;101104.19;4936684;29;20024;-89
2024/03/11 09:21:53;;;;;;;0.20;0.20;;;;;;;11.03;65.81;101110.03;4930507;29;20515;-87
2024/03/11 09:24:19;;;;;;;0.20;0.20;;;;;;;11.06;65.64;101099.53;4931556;29;20060;-87
2024/03/11 09:26:45;;;;;;;0.20;0.20;;;;;;;11.09;65.74;101116.69;4922944;29;20048;-93
2024/03/11 09:29:11;;;;;;;0.20;0.20;;;;;;;11.05;65.64;101116.00;4942189;29;20438;-85
2024/03/11 09:31:38;;;;;;;0.20;0.20;;;;;;;11.05;65.43;101116.00;4947002;29;20031;-86
2024/03/11 09:34:04;;;;;;;0.20;0.20;;;;;;;11.11;65.60;101118.31;4931421;29;20040;-89
2024/03/11 09:36:32;;;;;;;0.20;0.20;;;;;;;11.02;65.42;101120.47;4915451;28;20044;-93
2024/03/11 09:38:58;;;;;;;0.20;0.20;;;;;;;11.17;65.36;101125.81;4934091;29;20028;-91
2024/03/11 09:41:24;;;;;;;0.20;0.20;;;;;;;11.14;65.51;101122.53;4935199;29;20044;-92
2024/03/11 09:43:50;;;;;;;0.30;0.30;;;;;;;11.25;65.67;101122.06;4924428;29;20036;-93
2024/03/11 09:46:20;;;;;;;0.20;0.20;;;;;;;11.26;65.70;101118.56;4951702;29;20457;-90
2024/03/11 09:48:57;;;;;;;0.20;0.20;;;;;;;11.19;65.28;101130.91;4951474;29;20138;-89
2024/03/11 09:51:23;;;;;;;0.30;0.30;;;;;;;11.19;65.39;101139.53;4956411;28;20037;-90
2024/03/11 09:53:52;;;;;;;0.20;0.20;;;;;;;11.18;65.49;101130.06;4955343;29;20102;-89
2024/03/11 09:56:20;;;;;;;0.20;0.20;;;;;;;11.25;65.76;101142.78;4955129;29;20035;-92
2024/03/11 09:58:55;;;;;;;0.20;0.20;;;;;;;11.33;65.97;101135.50;4947364;29;20477;-88
2024/03/11 10:01:30;;;;;;;0.20;0.20;;;;;;;11.40;65.84;101131.72;4915198;29;20422;-92
2024/03/11 10:03:58;;;;;;;0.20;0.20;;;;;;;11.43;65.58;101113.47;4936171;29;20043;-91
2024/03/11 10:06:24;;;;;;;0.20;0.20;;;;;;;11.24;65.56;101092.72;4956814;28;20425;-88
2024/03/11 10:08:50;;;;;;;0.20;0.20;;;;;;;11.37;65.35;101111.97;4933750;29;20028;-88
2024/03/11 10:11:20;;;;;;;0.20;0.20;;;;;;;11.37;65.34;101109.41;4934635;29;20040;-85
2024/03/11 10:13:46;;;;;;;0.20;0.20;;;;;;;11.31;65.83;101103.66;4916702;29;20030;-89
2024/03/11 10:16:30;;;;;;;0.20;0.20;;;;;;;11.14;66.05;101057.78;4941354;29;20043;-92
2024/03/11 10:19:21;;;;;;;0.20;0.20;;;;;;;11.26;66.29;101095.25;4953092;28;20544;-93
2024/03/11 10:21:43;;;;;;;0.20;0.20;;;;;;;11.16;66.59;101074.09;4959377;29;20045;-91
2024/03/11 10:24:09;;;;;;;0.20;0.20;;;;;;;10.99;67.05;101064.47;4938026;29;20122;-87
2024/03/11 10:26:40;;;;;;;0.20;0.20;;;;;;;10.97;67.48;101068.88;4934985;29;20482;-91
2024/03/11 10:29:07;;;;;;;0.20;0.20;;;;;;;10.95;67.82;101056.91;4920498;29;20038;-88
2024/03/11 10:31:33;;;;;;;0.20;0.20;;;;;;;10.89;68.80;101039.88;4935883;29;20043;-91
2024/03/11 10:34:16;;;;;;;0.20;0.20;;;;;;;10.98;68.74;101038.66;4918018;29;20477;-91
2024/03/11 10:36:44;;;;;;;0.20;0.20;;;;;;;10.75;68.90;101014.63;4941417;28;20179;-87
2024/03/11 10:41:52;;;;;;;0.20;0.20;;;;;;;10.81;68.94;101022.09;4947662;29;20028;-88
2024/03/11 10:44:23;;;;;;;0.20;0.20;;;;;;;10.77;69.60;101014.53;4934557;29;20141;-91
2024/03/11 10:46:53;;;;;;;0.20;0.20;;;;;;;10.84;70.30;101029.75;4935934;29;20032;-84
2024/03/11 10:49:21;;;;;;;0.20;0.20;;;;;;;10.87;69.92;101036.53;4937129;29;20044;-88
2024/03/11 10:51:47;;;;;;;0.20;0.20;;;;;;;10.86;70.03;101029.69;4930058;29;20024;-88
2024/03/11 10:54:29;;;;;;;0.20;0.20;;;;;;;10.94;70.28;101037.13;4924977;29;20039;-91
2024/03/11 10:56:57;;;;;;;0.20;0.20;;;;;;;10.89;70.17;101034.72;4915311;29;20047;-84
2024/03/11 10:59:22;;;;;;;0.20;0.20;;;;;;;10.94;70.48;101035.38;4899055;29;20447;-90
2024/03/11 11:01:56;;;;;;;0.20;0.20;;;;;;;10.99;70.50;101004.06;4914252;29;20032;-88
2024/03/11 11:04:22;;;;;;;0.20;0.20;;;;;;;11.14;70.51;101008.59;4914989;29;20486;-90
2024/03/11 11:06:49;;;;;;;0.30;0.30;;;;;;;11.22;69.93;101010.84;4915543;29;20061;-87
2024/03/11 11:09:16;;;;;;;0.20;0.20;;;;;;;11.14;70.23;101004.25;4950127;29;20485;-91
2024/03/11 11:11:51;;;;;;;0.20;0.20;;;;;;;11.23;69.83;100997.81;4937558;29;20032;-87
2024/03/11 11:14:20;;;;;;;0.30;0.30;;;;;;;11.26;69.66;100976.09;4918976;29;20032;-90
2024/03/11 11:16:46;;;;;;;0.20;0.20;;;;;;;11.43;69.30;101009.84;4940543;29;20031;-89
2024/03/11 11:19:22;;;;;;;0.20;0.20;;;;;;;11.47;69.12;100964.75;4967524;28;20042;-90
2024/03/11 11:21:48;;;;;;;0.20;0.20;;;;;;;11.53;69.61;100994.72;4935970;29;20074;-89
2024/03/11 11:24:40;;;;;;;0.20;0.20;;;;;;;11.60;69.39;100968.44;4949157;29;20032;-84
2024/03/11 11:27:07;;;;;;;0.20;0.20;;;;;;;11.47;69.65;100970.75;4934134;29;20055;-85